Fish Creek, WI

3:55 PM CDT on May 27, 2015 (GMT -0500)
Door County Cherryland | | Change Station
CLOSE
Current Station
Airport
Location: Sturgeon Bay,
Elevation: 725 ft
Nearby Weather Stations

Elev 725 ft 44.84 °N, 87.42 °W | Updated 20 minutes ago

Mostly Cloudy
Mostly Cloudy
70 °F
Feels Like 70 °F
N
17
Wind Variable Wind from WSW

Today
High -- | Low -- °F
--% Chance of Precip.
Yesterday
High -- | Low -- °F
Precip. -- in
5:08 AM 8:24 PM
Waxing Gibbous, 70% visible
Pressure 29.95 in
Visibility 10.0 miles
Clouds Scattered Clouds 2900 ft
Dew Point 57 °F
Humidity 64%
Rainfall 0.00 in
Snow Depth Not available.
UV 6 out of 12
Pollen 2.70 out of 12
Air Quality Not available.
Flu Activity Sporadic
METAR KSUE 272035Z AUTO 25015KT 10SM SCT029 21/14 A2995 RMK AO1

More Conditions Fewer Conditions

Pressure 29.95 in
Visibility 10.0 miles
Clouds Scattered Clouds 2900 ft
Dew Point 57 °F
Humidity 64%
Rainfall 0.00 in
Snow Depth Not available.
UV 6 out of 12
Pollen 2.70 out of 12
Air Quality Not available.
Flu Activity Sporadic
METAR KSUE 272035Z AUTO 25015KT 10SM SCT029 21/14 A2995 RMK AO1

More Conditions Fewer Conditions

10-Day Weather Forecast

Almanac

Astronomy

May. 27, 2015 Rise Set
Actual Time
Civil Twilight
Nautical Twilight
Astronomical Twilight
Moon
Length of Visible Light
Length of Day
Tomorrow will be .
, % of the Moon is Illuminated

Today's Extremes

State Highs State Lows

Community

WunderPhotos

Upload Photos

1,824,782 photos uploaded!

WunderBlogs® & News

Nearby

Air Quality

  Air Quality AQ Index Pollutant
Not available.

Snow Depth

Station Depth Elevation

Earthquake Activity

City Distance Mag. Time & Date
Minimum magnitude displayed is 2.5.

Coastal Water Temperatures

Place Temperature

Stations

Nearby Weather Stations

Station Location Temp. Windchill Dew Point Humidity Wind Precip. Elev Updated Type